Gaither, Maryland
Current Conditions -  °F | °C
As of 10:10 PM on Wednesday 22 Oct 2014 (Local Time) from KDMW Reporting Station
Overcast Overcast  
Wind Chill: 52°   Ceiling: 2900
Heat Index: 52°   Visibility: 10mi
Dew Point: 45°   Wind: 10mph
Humidity: 76%   Direction: 340°NNW
Pressure: 29.95"   Gusts: 21mph
Location:  39.3995°N, 76.9748°W
Report Text: KDMW 230210Z AUTO 34009G18KT 10SM OVC029 11/07 A2995 RMK AO2
Loading
Personal Weather Stations






























Interactive Weather Map
Tropical Storm Tracking
New forecast layout! Learn more

10-Day Weather Forecast

Advertisements
Track Severe Weather on mobile